createdAt,value
2022-10-07T00:01:45.532Z,31.47
2022-10-07T00:04:14.876Z,19.73
2022-10-07T00:06:43.922Z,11.23
2022-10-07T00:09:12.941Z,8.17
2022-10-07T00:11:41.801Z,8.63
2022-10-07T00:14:10.602Z,9.37
2022-10-07T00:16:41.683Z,4.57
2022-10-07T00:19:30.399Z,5.13
2022-10-07T00:21:59.170Z,4.50
2022-10-07T00:24:28.230Z,4.97
2022-10-07T00:26:57.141Z,4.30
2022-10-07T00:29:26.246Z,4.93
2022-10-07T00:32:13.405Z,4.80
2022-10-07T00:34:43.660Z,4.43
2022-10-07T00:37:15.697Z,5.80
2022-10-07T00:39:46.030Z,4.80
2022-10-07T00:42:15.832Z,3.87
2022-10-07T00:44:46.098Z,5.57
2022-10-07T00:47:20.548Z,4.23
2022-10-07T00:49:55.847Z,5.87
2022-10-07T00:52:28.031Z,5.13
2022-10-07T00:54:59.661Z,4.60
2022-10-07T00:57:32.156Z,4.83
2022-10-07T01:00:02.189Z,7.17
2022-10-07T01:02:31.913Z,5.90
2022-10-07T01:05:05.236Z,6.67
2022-10-07T01:07:54.932Z,5.90
2022-10-07T01:10:34.028Z,5.13
2022-10-07T01:13:07.639Z,4.97
2022-10-07T01:15:40.875Z,5.27
2022-10-07T01:18:19.752Z,6.23
2022-10-07T01:20:56.150Z,5.80
2022-10-07T01:23:44.506Z,5.10
2022-10-07T01:26:41.097Z,7.27
2022-10-07T01:29:14.682Z,9.43
2022-10-07T01:31:50.135Z,8.43
2022-10-07T01:34:20.587Z,9.50
2022-10-07T01:36:53.716Z,7.53
2022-10-07T01:39:35.102Z,4.97
2022-10-07T01:42:06.712Z,6.73
2022-10-07T01:44:35.899Z,4.20
2022-10-07T01:47:05.018Z,4.50
2022-10-07T01:49:33.956Z,5.10
2022-10-07T01:52:15.749Z,3.93
2022-10-07T01:55:04.689Z,3.30
2022-10-07T01:57:42.893Z,5.80
2022-10-07T02:00:13.038Z,3.70
2022-10-07T02:03:05.070Z,4.23
2022-10-07T02:05:44.299Z,2.87
2022-10-07T02:08:33.855Z,2.90
2022-10-07T02:11:12.929Z,6.30
2022-10-07T02:13:58.112Z,3.47
2022-10-07T02:16:34.011Z,3.83
2022-10-07T02:19:08.290Z,4.47
2022-10-07T02:21:37.914Z,3.10
2022-10-07T02:24:11.220Z,4.57
2022-10-07T02:26:42.342Z,2.70
2022-10-07T02:29:16.245Z,4.00
2022-10-07T02:31:46.573Z,2.77
2022-10-07T02:34:20.102Z,4.10
2022-10-07T02:36:54.921Z,5.63
2022-10-07T02:39:23.959Z,4.30
2022-10-07T02:42:02.941Z,3.47
2022-10-07T02:44:37.624Z,4.73
2022-10-07T02:47:14.476Z,3.00
2022-10-07T02:49:46.271Z,4.20
2022-10-07T02:52:17.600Z,7.03
2022-10-07T02:54:51.360Z,6.27
2022-10-07T02:57:23.002Z,9.80
2022-10-07T02:59:54.671Z,6.03
2022-10-07T03:02:28.181Z,8.30
2022-10-07T03:04:59.146Z,7.53
2022-10-07T03:07:30.079Z,6.30
2022-10-07T03:09:59.002Z,6.90
2022-10-07T03:12:29.138Z,11.70
2022-10-07T03:14:59.585Z,12.17
2022-10-07T03:17:28.764Z,8.33
2022-10-07T03:19:58.233Z,8.67
2022-10-07T03:22:27.759Z,9.70
2022-10-07T03:24:56.475Z,10.10
2022-10-07T03:27:26.102Z,10.43
2022-10-07T03:29:55.385Z,11.03
2022-10-07T03:32:44.934Z,11.67
2022-10-07T03:35:13.706Z,11.37
2022-10-07T03:37:43.318Z,10.47
2022-10-07T03:40:12.956Z,11.93
2022-10-07T03:42:43.717Z,15.50
2022-10-07T03:45:12.765Z,19.27
2022-10-07T03:47:41.892Z,15.47
2022-10-07T03:50:12.516Z,18.57
2022-10-07T03:52:41.310Z,22.73
2022-10-07T03:55:11.089Z,17.60
2022-10-07T03:57:59.118Z,17.80
2022-10-07T04:00:30.043Z,15.30
2022-10-07T04:03:00.131Z,17.97
2022-10-07T04:05:30.504Z,13.07
2022-10-07T04:07:59.346Z,18.00
2022-10-07T04:10:28.623Z,20.20
2022-10-07T04:12:57.585Z,13.10
2022-10-07T04:15:26.600Z,28.23
2022-10-07T04:17:59.043Z,16.37
2022-10-07T04:20:31.096Z,14.83
2022-10-07T04:22:59.912Z,12.30
2022-10-07T04:25:38.719Z,12.77
2022-10-07T04:28:18.845Z,11.17
2022-10-07T04:30:54.228Z,18.07
2022-10-07T04:33:30.249Z,16.80
2022-10-07T04:36:18.134Z,12.87
2022-10-07T04:39:06.207Z,15.80
2022-10-07T04:41:43.411Z,7.80
2022-10-07T04:44:18.029Z,7.07
2022-10-07T04:47:06.660Z,17.50
2022-10-07T04:49:45.691Z,9.43
2022-10-07T04:52:16.346Z,9.10
2022-10-07T04:55:05.591Z,7.40
2022-10-07T04:57:40.247Z,17.23
2022-10-07T05:00:11.873Z,8.00
2022-10-07T05:02:40.813Z,5.13
2022-10-07T05:05:10.418Z,14.73
2022-10-07T05:07:40.704Z,23.13
2022-10-07T05:10:27.997Z,9.73
2022-10-07T05:12:57.268Z,6.87
2022-10-07T05:15:26.373Z,8.40
2022-10-07T05:17:56.108Z,10.40
2022-10-07T05:20:27.459Z,8.27
2022-10-07T05:22:59.444Z,12.90
2022-10-07T05:25:28.493Z,9.83
2022-10-07T05:27:57.280Z,15.83
2022-10-07T05:30:26.352Z,12.00
2022-10-07T05:32:56.011Z,13.13
2022-10-07T05:35:28.057Z,10.63
2022-10-07T05:37:58.591Z,19.77
2022-10-07T05:40:27.490Z,54.87
2022-10-07T05:43:05.991Z,301.37
2022-10-07T05:45:45.305Z,260.50
2022-10-07T05:48:15.546Z,164.97
2022-10-07T05:50:57.702Z,21.07
2022-10-07T05:53:28.736Z,12.33
2022-10-07T05:55:57.963Z,325.17
2022-10-07T05:58:29.017Z,94.63
2022-10-07T06:01:04.857Z,28.40
2022-10-07T06:03:35.792Z,36.33
2022-10-07T06:06:04.551Z,27.53
2022-10-07T06:08:35.058Z,37.67
2022-10-07T06:11:22.765Z,17.50
2022-10-07T06:13:53.032Z,24.60
2022-10-07T06:16:22.083Z,23.70
2022-10-07T06:18:52.769Z,25.60
2022-10-07T06:21:28.343Z,36.90
2022-10-07T06:24:03.615Z,22.07
2022-10-07T06:26:36.250Z,32.73
2022-10-07T06:29:06.247Z,28.80
2022-10-07T06:31:35.735Z,11.90
2022-10-07T06:34:06.424Z,23.70
2022-10-07T06:36:35.685Z,22.30
2022-10-07T06:39:06.190Z,13.20
2022-10-07T06:41:39.751Z,12.80
2022-10-07T06:44:40.787Z,29.37
2022-10-07T06:47:12.600Z,32.33
2022-10-07T06:49:44.220Z,26.63
2022-10-07T06:52:13.253Z,23.33
2022-10-07T06:54:44.796Z,13.70
2022-10-07T06:57:40.194Z,16.10
2022-10-07T07:00:05.334Z,18.13
2022-10-07T07:02:35.298Z,13.00
2022-10-07T07:05:08.687Z,12.80
2022-10-07T07:07:39.281Z,10.20
2022-10-07T07:10:10.688Z,10.57
2022-10-07T07:12:43.351Z,18.27
2022-10-07T07:15:12.818Z,16.13
2022-10-07T07:17:42.500Z,17.83
2022-10-07T07:20:13.595Z,17.57
2022-10-07T07:22:43.543Z,17.50
2022-10-07T07:25:14.234Z,14.57
2022-10-07T07:27:43.440Z,19.90
2022-10-07T07:30:13.908Z,16.90
2022-10-07T07:32:46.022Z,23.40
2022-10-07T07:35:15.269Z,14.77
2022-10-07T07:37:44.790Z,15.87
2022-10-07T07:40:15.137Z,15.57
2022-10-07T07:42:44.196Z,16.03
2022-10-07T07:45:13.824Z,9.80
2022-10-07T07:47:43.348Z,13.00
2022-10-07T07:50:12.665Z,9.33
2022-10-07T07:52:41.470Z,9.97
2022-10-07T07:55:11.106Z,9.50
2022-10-07T07:57:42.221Z,13.10
2022-10-07T08:00:15.139Z,8.90
2022-10-07T08:02:53.444Z,20.27
2022-10-07T08:05:24.186Z,12.50
2022-10-07T08:07:56.403Z,15.77
2022-10-07T08:10:27.234Z,11.73
2022-10-07T08:12:58.234Z,20.00
2022-10-07T08:15:27.113Z,16.63
2022-10-07T08:17:56.067Z,6.73
2022-10-07T08:20:24.913Z,11.63
2022-10-07T08:22:58.801Z,9.13
2022-10-07T08:25:29.794Z,8.97
2022-10-07T08:28:03.596Z,10.40
2022-10-07T08:30:34.074Z,14.40
2022-10-07T08:33:03.081Z,14.50
2022-10-07T08:35:31.739Z,11.10
2022-10-07T08:38:00.438Z,8.23
2022-10-07T08:40:29.367Z,12.23
2022-10-07T08:42:59.629Z,14.90
2022-10-07T08:45:33.789Z,18.77
2022-10-07T08:48:08.355Z,12.63
2022-10-07T08:50:46.313Z,10.47
2022-10-07T08:53:21.249Z,9.33
2022-10-07T08:55:55.216Z,15.27
2022-10-07T08:58:43.519Z,8.80
2022-10-07T09:01:28.188Z,4.97
2022-10-07T09:04:04.027Z,9.50
2022-10-07T09:06:37.387Z,6.83
2022-10-07T09:09:29.051Z,5.40
2022-10-07T09:12:00.918Z,7.90
2022-10-07T09:14:32.476Z,7.13
2022-10-07T09:17:07.933Z,8.53
2022-10-07T09:19:42.752Z,4.37
2022-10-07T09:22:19.637Z,9.60
2022-10-07T09:24:49.608Z,5.47
2022-10-07T09:27:23.192Z,3.67
2022-10-07T09:29:52.189Z,7.30
2022-10-07T09:32:23.155Z,8.10
2022-10-07T09:34:52.454Z,6.23
2022-10-07T09:37:23.637Z,5.10
2022-10-07T09:39:53.678Z,4.73
2022-10-07T09:42:35.420Z,9.13
2022-10-07T09:45:18.791Z,7.73
2022-10-07T09:47:53.936Z,5.47
2022-10-07T09:50:37.266Z,5.63
2022-10-07T09:53:07.682Z,11.07
2022-10-07T09:55:42.345Z,6.50
2022-10-07T09:58:19.972Z,14.83
2022-10-07T10:00:50.424Z,8.63
2022-10-07T10:03:21.303Z,5.43
2022-10-07T10:05:57.633Z,11.07
2022-10-07T10:08:29.892Z,5.97
2022-10-07T10:11:01.525Z,5.87
2022-10-07T10:13:33.767Z,3.33
2022-10-07T10:16:03.803Z,2.17
2022-10-07T10:18:59.059Z,7.67
2022-10-07T10:21:30.777Z,4.33
2022-10-07T10:24:01.081Z,3.73
2022-10-07T10:26:56.710Z,7.10
2022-10-07T10:29:45.179Z,4.27
2022-10-07T10:32:43.345Z,12.17
2022-10-07T10:35:17.002Z,6.27
2022-10-07T10:38:04.444Z,11.17
2022-10-07T10:40:39.627Z,4.17
2022-10-07T10:43:27.831Z,8.87
2022-10-07T10:46:21.712Z,14.43
2022-10-07T10:48:57.029Z,15.60
2022-10-07T10:51:48.276Z,10.60
2022-10-07T10:54:26.564Z,5.73
2022-10-07T10:57:03.451Z,8.00
2022-10-07T10:59:55.382Z,25.00
2022-10-07T11:02:49.168Z,15.07
2022-10-07T11:05:23.828Z,15.83
2022-10-07T11:07:59.765Z,17.63
2022-10-07T11:10:36.225Z,11.30
2022-10-07T11:13:19.271Z,10.07
2022-10-07T11:15:53.826Z,10.67
2022-10-07T11:18:28.886Z,12.77
2022-10-07T11:21:00.017Z,11.37
2022-10-07T11:23:43.103Z,16.23
2022-10-07T11:26:19.263Z,18.33
2022-10-07T11:28:51.209Z,15.33
2022-10-07T11:31:28.360Z,20.67
2022-10-07T11:34:13.822Z,17.77
2022-10-07T11:36:52.877Z,20.17
2022-10-07T11:39:24.395Z,29.07
2022-10-07T11:41:59.702Z,28.63
2022-10-07T11:44:34.244Z,15.33
2022-10-07T11:47:06.073Z,15.27
2022-10-07T11:49:39.223Z,18.03
2022-10-07T11:52:10.994Z,11.60
2022-10-07T11:54:54.739Z,23.90
2022-10-07T11:57:26.783Z,21.60
2022-10-07T12:00:00.478Z,14.03
2022-10-07T12:02:41.874Z,17.17
2022-10-07T12:05:55.928Z,16.37
2022-10-07T12:08:33.525Z,14.87
2022-10-07T12:11:41.635Z,23.10
2022-10-07T12:14:35.928Z,16.10
2022-10-07T12:17:30.619Z,17.40
2022-10-07T12:20:45.295Z,17.73
2022-10-07T12:23:43.693Z,8.70
2022-10-07T12:26:46.738Z,15.50
2022-10-07T12:29:51.073Z,16.33
2022-10-07T12:32:43.260Z,14.20
2022-10-07T12:35:53.058Z,13.00
2022-10-07T12:38:28.360Z,11.53
2022-10-07T12:41:23.420Z,14.23
2022-10-07T12:44:00.750Z,16.00
2022-10-07T12:46:35.725Z,10.00
2022-10-07T12:49:14.673Z,10.80
2022-10-07T12:51:46.050Z,11.57
2022-10-07T12:54:20.448Z,15.27
2022-10-07T12:56:51.042Z,13.73
2022-10-07T12:59:51.395Z,9.00
2022-10-07T13:02:54.900Z,12.63
2022-10-07T13:06:05.523Z,17.10
2022-10-07T13:09:09.955Z,14.57
2022-10-07T13:11:59.977Z,9.53
2022-10-07T13:14:38.081Z,8.07
2022-10-07T13:17:22.725Z,8.47
2022-10-07T13:20:00.856Z,6.17
2022-10-07T13:22:30.989Z,12.07
2022-10-07T13:25:02.972Z,6.93
2022-10-07T13:27:34.721Z,15.30
2022-10-07T13:30:07.865Z,9.80
2022-10-07T13:32:37.427Z,24.47
2022-10-07T13:35:25.001Z,17.93
2022-10-07T13:37:54.154Z,14.87
2022-10-07T13:40:26.640Z,10.87
2022-10-07T13:42:56.825Z,18.33
2022-10-07T13:45:28.548Z,17.07
2022-10-07T13:47:58.423Z,18.43
2022-10-07T13:50:30.947Z,16.30
2022-10-07T13:53:01.272Z,12.90
2022-10-07T13:55:32.036Z,13.63
2022-10-07T13:58:04.610Z,13.80
2022-10-07T14:00:37.412Z,14.60
2022-10-07T14:03:15.115Z,7.43
2022-10-07T14:05:52.209Z,11.03
2022-10-07T14:08:22.917Z,12.33
2022-10-07T14:10:55.266Z,14.57
2022-10-07T14:13:24.683Z,13.20
2022-10-07T14:15:57.930Z,15.33
2022-10-07T14:18:45.878Z,10.07
2022-10-07T14:21:17.568Z,8.83
2022-10-07T14:23:48.077Z,12.70
2022-10-07T14:26:19.274Z,16.40
2022-10-07T14:28:48.240Z,21.00
2022-10-07T14:31:54.829Z,22.23
2022-10-07T14:34:40.724Z,22.67
2022-10-07T14:37:31.681Z,19.33
2022-10-07T14:40:00.593Z,21.17
2022-10-07T14:42:33.575Z,24.03
2022-10-07T14:45:04.838Z,30.10
2022-10-07T14:47:53.823Z,33.17
2022-10-07T14:50:23.356Z,13.87
2022-10-07T14:52:53.463Z,20.73
2022-10-07T14:55:25.345Z,24.13
2022-10-07T14:57:55.474Z,41.80
2022-10-07T15:00:26.363Z,41.63
2022-10-07T15:02:57.022Z,51.73
2022-10-07T15:05:26.663Z,45.33
2022-10-07T15:07:55.490Z,45.67
2022-10-07T15:10:26.784Z,43.57
2022-10-07T15:12:57.007Z,50.20
2022-10-07T15:15:25.813Z,42.07
2022-10-07T15:17:56.565Z,38.13
2022-10-07T15:20:25.259Z,40.53
2022-10-07T15:22:54.067Z,21.07
2022-10-07T15:25:22.893Z,25.30
2022-10-07T15:27:51.946Z,17.77
2022-10-07T15:30:21.251Z,25.13
2022-10-07T15:32:49.987Z,20.73
2022-10-07T15:35:20.957Z,20.87
2022-10-07T15:37:49.632Z,16.50
2022-10-07T15:40:18.846Z,20.90
2022-10-07T15:42:48.038Z,16.10
2022-10-07T15:45:17.253Z,19.73
2022-10-07T15:47:46.142Z,19.27
2022-10-07T15:50:16.437Z,17.33
2022-10-07T15:52:46.704Z,16.10
2022-10-07T15:55:16.543Z,15.13
2022-10-07T15:57:45.529Z,19.17
2022-10-07T16:00:15.777Z,18.13
2022-10-07T16:02:45.226Z,14.70
2022-10-07T16:05:15.479Z,20.17
2022-10-07T16:07:45.807Z,17.83
2022-10-07T16:10:14.833Z,18.17
2022-10-07T16:12:43.958Z,13.70
2022-10-07T16:15:13.120Z,13.83
2022-10-07T16:17:41.809Z,15.00
2022-10-07T16:20:11.695Z,12.87
2022-10-07T16:22:40.568Z,20.17
2022-10-07T16:25:11.227Z,13.20
2022-10-07T16:27:57.775Z,15.57
2022-10-07T16:30:49.359Z,13.60
2022-10-07T16:33:19.151Z,22.57
2022-10-07T16:35:47.883Z,18.43
2022-10-07T16:38:16.734Z,17.70
2022-10-07T16:40:56.079Z,15.27
2022-10-07T16:43:24.928Z,15.37
2022-10-07T16:45:53.662Z,10.17
2022-10-07T16:48:22.468Z,10.40
2022-10-07T16:50:51.308Z,13.83
2022-10-07T16:53:20.031Z,10.03
2022-10-07T16:55:49.040Z,11.00
2022-10-07T16:58:19.379Z,10.73
2022-10-07T17:00:48.248Z,10.57
2022-10-07T17:03:17.076Z,13.47
2022-10-07T17:05:45.740Z,14.23
2022-10-07T17:08:14.528Z,10.03
2022-10-07T17:10:43.461Z,14.00
2022-10-07T17:13:12.857Z,14.80
2022-10-07T17:15:43.103Z,16.33
2022-10-07T17:18:12.673Z,14.37
2022-10-07T17:20:41.983Z,10.13
2022-10-07T17:23:10.978Z,10.07
2022-10-07T17:25:40.459Z,11.03
2022-10-07T17:28:09.344Z,7.60
2022-10-07T17:30:38.062Z,7.97
2022-10-07T17:33:09.012Z,8.77
2022-10-07T17:35:38.421Z,10.10
2022-10-07T17:38:07.146Z,11.93
2022-10-07T17:40:36.922Z,10.20
2022-10-07T17:43:08.054Z,14.10
2022-10-07T17:45:37.342Z,10.50
2022-10-07T17:48:08.675Z,27.13
2022-10-07T17:50:39.464Z,20.70
2022-10-07T17:53:08.423Z,12.43
2022-10-07T17:55:37.867Z,13.73
2022-10-07T17:58:06.635Z,11.77
2022-10-07T18:00:35.489Z,8.03
2022-10-07T18:03:05.654Z,8.33
2022-10-07T18:05:35.864Z,7.90
2022-10-07T18:08:04.647Z,7.80
2022-10-07T18:10:33.368Z,7.73
2022-10-07T18:13:19.715Z,8.60
2022-10-07T18:15:59.074Z,8.67
2022-10-07T18:18:28.473Z,8.73
2022-10-07T18:21:17.326Z,9.40
2022-10-07T18:23:46.065Z,9.17
2022-10-07T18:26:14.898Z,10.47
2022-10-07T18:28:44.050Z,11.47
2022-10-07T18:31:14.909Z,11.20
2022-10-07T18:33:43.730Z,11.33
2022-10-07T18:36:15.309Z,8.80
2022-10-07T18:38:46.581Z,9.43
2022-10-07T18:41:17.893Z,11.67
2022-10-07T18:43:47.200Z,8.63
2022-10-07T18:46:18.660Z,9.30
2022-10-07T18:48:49.326Z,9.70
2022-10-07T18:51:37.667Z,11.57
2022-10-07T18:54:08.026Z,9.93
2022-10-07T18:56:40.888Z,10.43
2022-10-07T18:59:13.207Z,10.83
2022-10-07T19:01:44.388Z,12.30
2022-10-07T19:04:16.740Z,18.20
2022-10-07T19:06:46.393Z,15.97
2022-10-07T19:09:18.551Z,17.70
2022-10-07T19:11:47.791Z,219.47
2022-10-07T19:14:15.739Z,171.77
2022-10-07T19:16:46.174Z,124.60
2022-10-07T19:19:17.272Z,66.23
2022-10-07T19:21:47.713Z,52.63
2022-10-07T19:24:19.347Z,45.33
2022-10-07T19:26:50.306Z,38.37
2022-10-07T19:29:19.477Z,40.57
2022-10-07T19:31:50.197Z,48.53
2022-10-07T19:34:21.005Z,78.20
2022-10-07T19:36:50.725Z,55.87
2022-10-07T19:39:23.456Z,47.67
2022-10-07T19:41:52.336Z,56.40
2022-10-07T19:44:21.311Z,49.93
2022-10-07T19:46:52.624Z,37.60
2022-10-07T19:49:22.405Z,31.43
2022-10-07T19:51:51.304Z,33.83
2022-10-07T19:54:21.499Z,33.20
2022-10-07T19:56:50.250Z,33.67
2022-10-07T19:59:19.286Z,30.33
2022-10-07T20:01:49.887Z,33.03
2022-10-07T20:04:37.382Z,37.40
2022-10-07T20:07:06.141Z,32.10
2022-10-07T20:09:36.365Z,33.53
2022-10-07T20:12:05.634Z,34.97
2022-10-07T20:14:35.510Z,36.27
2022-10-07T20:17:04.463Z,34.20
2022-10-07T20:19:33.421Z,27.63
2022-10-07T20:22:03.511Z,26.30
2022-10-07T20:24:32.631Z,22.17
2022-10-07T20:27:04.247Z,23.43
2022-10-07T20:29:33.130Z,25.63
2022-10-07T20:32:02.243Z,28.87
2022-10-07T20:34:31.117Z,26.13
2022-10-07T20:37:00.232Z,25.67
2022-10-07T20:39:46.542Z,26.13
2022-10-07T20:42:24.711Z,26.50
2022-10-07T20:44:54.375Z,27.27
2022-10-07T20:47:25.005Z,23.67
2022-10-07T20:50:12.700Z,24.50
2022-10-07T20:52:41.477Z,24.53
2022-10-07T20:55:11.739Z,25.43
2022-10-07T20:57:42.010Z,28.13
2022-10-07T21:00:16.495Z,29.10
2022-10-07T21:02:46.049Z,26.73
2022-10-07T21:05:33.761Z,26.27
2022-10-07T21:08:02.892Z,25.63
2022-10-07T21:10:32.920Z,22.83
2022-10-07T21:13:03.184Z,23.37
2022-10-07T21:15:32.053Z,24.30
2022-10-07T21:18:00.843Z,24.70
2022-10-07T21:20:29.659Z,25.07
2022-10-07T21:22:58.480Z,24.87
2022-10-07T21:25:27.195Z,27.93
2022-10-07T21:27:55.982Z,24.77
2022-10-07T21:30:26.381Z,22.83
2022-10-07T21:32:55.255Z,24.33
2022-10-07T21:35:24.028Z,26.90
2022-10-07T21:37:52.810Z,24.30
2022-10-07T21:40:21.944Z,25.83
2022-10-07T21:42:50.742Z,26.30
2022-10-07T21:45:19.526Z,25.60
2022-10-07T21:47:50.754Z,27.07
2022-10-07T21:50:19.997Z,27.40
2022-10-07T21:52:49.160Z,30.13
2022-10-07T21:55:18.361Z,28.43
2022-10-07T21:57:47.212Z,29.20
2022-10-07T22:00:17.430Z,28.97
2022-10-07T22:02:46.621Z,30.40
2022-10-07T22:05:17.723Z,30.33
2022-10-07T22:08:22.227Z,34.53
2022-10-07T22:10:51.635Z,30.53
2022-10-07T22:13:20.589Z,30.83
2022-10-07T22:15:50.369Z,32.77
2022-10-07T22:18:19.447Z,32.80
2022-10-07T22:20:49.841Z,33.57
2022-10-07T22:23:20.097Z,33.17
2022-10-07T22:25:49.358Z,34.10
2022-10-07T22:28:18.252Z,33.70
2022-10-07T22:30:47.120Z,34.53
2022-10-07T22:33:15.969Z,41.73
2022-10-07T22:35:44.727Z,36.30
2022-10-07T22:38:14.871Z,35.63
2022-10-07T22:40:44.504Z,38.30
2022-10-07T22:43:13.327Z,39.70
2022-10-07T22:45:43.491Z,38.43
2022-10-07T22:48:12.182Z,38.77
2022-10-07T22:50:42.673Z,38.07
2022-10-07T22:53:11.629Z,40.23
2022-10-07T22:55:41.743Z,39.50
2022-10-07T22:58:10.890Z,40.77
2022-10-07T23:00:39.675Z,40.63
2022-10-07T23:03:11.139Z,43.20
2022-10-07T23:05:39.960Z,39.57
2022-10-07T23:08:08.959Z,40.90
2022-10-07T23:10:37.761Z,39.27
2022-10-07T23:13:08.166Z,40.40
2022-10-07T23:15:36.958Z,47.70
2022-10-07T23:18:06.207Z,43.17
2022-10-07T23:20:34.829Z,39.60
2022-10-07T23:23:03.541Z,43.73
2022-10-07T23:25:32.221Z,40.60
2022-10-07T23:28:01.054Z,42.30
2022-10-07T23:30:31.359Z,41.37
2022-10-07T23:33:00.100Z,42.07
2022-10-07T23:35:32.709Z,43.23
2022-10-07T23:38:01.739Z,41.07
2022-10-07T23:40:30.424Z,41.70
2022-10-07T23:42:59.329Z,40.80
2022-10-07T23:45:28.046Z,43.20
2022-10-07T23:47:58.165Z,40.93
2022-10-07T23:50:27.982Z,45.23
2022-10-07T23:52:56.856Z,42.37
2022-10-07T23:55:25.592Z,40.07
2022-10-07T23:57:54.504Z,43.33
